sensor_id;sensor_type;location;lat;lon;timestamp;P1;durP1;ratioP1;P2;durP2;ratioP2
50281;SDS011;36176;51.506;10.272;2022-08-20T00:14:26;2.03;;;1.90;;
50281;SDS011;36176;51.506;10.272;2022-08-20T00:16:56;2.70;;;1.90;;
50281;SDS011;36176;51.506;10.272;2022-08-20T00:19:35;1.83;;;1.73;;
50281;SDS011;36176;51.506;10.272;2022-08-20T00:38:01;1.60;;;1.50;;
50281;SDS011;36176;51.506;10.272;2022-08-20T00:44:53;1.60;;;1.50;;
50281;SDS011;36176;51.506;10.272;2022-08-20T00:50:43;2.30;;;1.80;;
50281;SDS011;36176;51.506;10.272;2022-08-20T00:57:37;1.70;;;1.60;;
50281;SDS011;36176;51.506;10.272;2022-08-20T01:00:59;1.80;;;1.70;;
50281;SDS011;36176;51.506;10.272;2022-08-20T01:03:59;2.80;;;1.80;;
50281;SDS011;36176;51.506;10.272;2022-08-20T01:10:33;2.20;;;2.00;;
50281;SDS011;36176;51.506;10.272;2022-08-20T01:35:00;2.00;;;1.80;;
50281;SDS011;36176;51.506;10.272;2022-08-20T01:41:40;2.00;;;1.70;;
50281;SDS011;36176;51.506;10.272;2022-08-20T01:45:26;2.00;;;1.90;;
50281;SDS011;36176;51.506;10.272;2022-08-20T01:52:05;1.70;;;1.60;;
50281;SDS011;36176;51.506;10.272;2022-08-20T01:54:34;1.90;;;1.70;;
50281;SDS011;36176;51.506;10.272;2022-08-20T02:12:12;1.63;;;1.53;;
50281;SDS011;36176;51.506;10.272;2022-08-20T02:14:40;2.20;;;2.00;;
50281;SDS011;36176;51.506;10.272;2022-08-20T02:42:14;2.10;;;1.90;;
50281;SDS011;36176;51.506;10.272;2022-08-20T02:44:42;3.23;;;1.90;;
50281;SDS011;36176;51.506;10.272;2022-08-20T02:47:10;1.70;;;1.60;;
50281;SDS011;36176;51.506;10.272;2022-08-20T02:49:40;1.93;;;1.83;;
50281;SDS011;36176;51.506;10.272;2022-08-20T02:58:19;2.80;;;1.73;;
50281;SDS011;36176;51.506;10.272;2022-08-20T03:00:47;1.87;;;1.77;;
50281;SDS011;36176;51.506;10.272;2022-08-20T03:03:15;2.47;;;1.73;;
50281;SDS011;36176;51.506;10.272;2022-08-20T03:05:49;1.90;;;1.80;;
50281;SDS011;36176;51.506;10.272;2022-08-20T03:13:03;2.23;;;1.60;;
50281;SDS011;36176;51.506;10.272;2022-08-20T03:15:32;2.00;;;1.90;;
50281;SDS011;36176;51.506;10.272;2022-08-20T03:18:00;2.00;;;1.90;;
50281;SDS011;36176;51.506;10.272;2022-08-20T03:21:04;1.97;;;1.87;;
50281;SDS011;36176;51.506;10.272;2022-08-20T03:37:03;3.20;;;1.90;;
50281;SDS011;36176;51.506;10.272;2022-08-20T03:39:30;3.57;;;2.13;;
50281;SDS011;36176;51.506;10.272;2022-08-20T03:41:58;2.03;;;1.93;;
50281;SDS011;36176;51.506;10.272;2022-08-20T03:44:25;2.80;;;2.60;;
50281;SDS011;36176;51.506;10.272;2022-08-20T03:46:52;1.90;;;1.80;;
50281;SDS011;36176;51.506;10.272;2022-08-20T03:49:20;2.50;;;2.30;;
50281;SDS011;36176;51.506;10.272;2022-08-20T03:51:55;3.17;;;2.87;;
50281;SDS011;36176;51.506;10.272;2022-08-20T04:28:04;2.87;;;2.67;;
50281;SDS011;36176;51.506;10.272;2022-08-20T04:30:32;3.30;;;2.70;;
50281;SDS011;36176;51.506;10.272;2022-08-20T04:33:00;2.33;;;2.23;;
50281;SDS011;36176;51.506;10.272;2022-08-20T04:35:40;3.57;;;3.27;;
50281;SDS011;36176;51.506;10.272;2022-08-20T04:38:28;3.87;;;2.47;;
50281;SDS011;36176;51.506;10.272;2022-08-20T04:41:21;2.60;;;2.40;;
50281;SDS011;36176;51.506;10.272;2022-08-20T04:44:02;2.80;;;2.60;;
50281;SDS011;36176;51.506;10.272;2022-08-20T04:46:29;3.20;;;2.97;;
50281;SDS011;36176;51.506;10.272;2022-08-20T04:48:58;3.37;;;3.17;;
50281;SDS011;36176;51.506;10.272;2022-08-20T04:51:29;3.03;;;2.30;;
50281;SDS011;36176;51.506;10.272;2022-08-20T04:53:58;3.43;;;3.23;;
50281;SDS011;36176;51.506;10.272;2022-08-20T04:56:27;2.60;;;2.40;;
50281;SDS011;36176;51.506;10.272;2022-08-20T04:58:58;3.80;;;3.33;;
50281;SDS011;36176;51.506;10.272;2022-08-20T05:01:27;3.00;;;2.80;;
50281;SDS011;36176;51.506;10.272;2022-08-20T05:03:56;3.10;;;2.40;;
50281;SDS011;36176;51.506;10.272;2022-08-20T05:06:26;3.10;;;2.80;;
50281;SDS011;36176;51.506;10.272;2022-08-20T05:08:56;2.67;;;2.47;;
50281;SDS011;36176;51.506;10.272;2022-08-20T05:11:24;3.27;;;3.07;;
50281;SDS011;36176;51.506;10.272;2022-08-20T05:14:16;2.83;;;2.63;;
50281;SDS011;36176;51.506;10.272;2022-08-20T05:16:44;4.40;;;2.90;;
50281;SDS011;36176;51.506;10.272;2022-08-20T05:19:11;3.83;;;2.80;;
50281;SDS011;36176;51.506;10.272;2022-08-20T05:21:39;3.47;;;3.00;;
50281;SDS011;36176;51.506;10.272;2022-08-20T05:24:07;3.03;;;2.83;;
50281;SDS011;36176;51.506;10.272;2022-08-20T05:26:36;3.20;;;3.00;;
50281;SDS011;36176;51.506;10.272;2022-08-20T05:29:03;3.43;;;3.07;;
50281;SDS011;36176;51.506;10.272;2022-08-20T05:31:32;3.80;;;3.50;;
50281;SDS011;36176;51.506;10.272;2022-08-20T05:34:02;4.10;;;3.00;;
50281;SDS011;36176;51.506;10.272;2022-08-20T05:36:32;5.30;;;2.80;;
50281;SDS011;36176;51.506;10.272;2022-08-20T05:39:03;3.00;;;2.77;;
50281;SDS011;36176;51.506;10.272;2022-08-20T05:41:30;4.07;;;3.67;;
50281;SDS011;36176;51.506;10.272;2022-08-20T05:43:58;3.60;;;3.30;;
50281;SDS011;36176;51.506;10.272;2022-08-20T05:46:27;3.60;;;3.27;;
50281;SDS011;36176;51.506;10.272;2022-08-20T05:48:58;4.33;;;3.13;;
50281;SDS011;36176;51.506;10.272;2022-08-20T05:51:28;4.23;;;2.70;;
50281;SDS011;36176;51.506;10.272;2022-08-20T05:53:55;3.70;;;3.40;;
50281;SDS011;36176;51.506;10.272;2022-08-20T05:56:33;4.13;;;3.73;;
50281;SDS011;36176;51.506;10.272;2022-08-20T05:59:00;3.43;;;3.13;;
50281;SDS011;36176;51.506;10.272;2022-08-20T06:01:32;4.67;;;3.43;;
50281;SDS011;36176;51.506;10.272;2022-08-20T06:04:01;7.67;;;3.73;;
50281;SDS011;36176;51.506;10.272;2022-08-20T06:06:48;6.83;;;4.00;;
50281;SDS011;36176;51.506;10.272;2022-08-20T06:09:18;8.18;;;4.20;;
50281;SDS011;36176;51.506;10.272;2022-08-20T06:15:07;4.93;;;4.53;;
50281;SDS011;36176;51.506;10.272;2022-08-20T06:17:35;8.80;;;5.30;;
50281;SDS011;36176;51.506;10.272;2022-08-20T06:20:16;7.25;;;4.65;;
50281;SDS011;36176;51.506;10.272;2022-08-20T06:22:44;9.40;;;4.63;;
50281;SDS011;36176;51.506;10.272;2022-08-20T06:25:13;4.05;;;3.60;;
50281;SDS011;36176;51.506;10.272;2022-08-20T06:27:41;8.75;;;4.38;;
50281;SDS011;36176;51.506;10.272;2022-08-20T06:30:11;11.43;;;4.95;;
50281;SDS011;36176;51.506;10.272;2022-08-20T06:32:39;5.82;;;3.97;;
50281;SDS011;36176;51.506;10.272;2022-08-20T06:35:07;5.05;;;4.13;;
50281;SDS011;36176;51.506;10.272;2022-08-20T06:37:36;6.75;;;4.32;;
50281;SDS011;36176;51.506;10.272;2022-08-20T06:40:08;6.38;;;4.70;;
50281;SDS011;36176;51.506;10.272;2022-08-20T06:42:38;4.45;;;3.97;;
50281;SDS011;36176;51.506;10.272;2022-08-20T06:45:15;6.93;;;4.60;;
50281;SDS011;36176;51.506;10.272;2022-08-20T06:47:45;9.38;;;5.13;;
50281;SDS011;36176;51.506;10.272;2022-08-20T06:50:15;7.70;;;5.05;;
50281;SDS011;36176;51.506;10.272;2022-08-20T06:52:45;5.63;;;5.00;;
50281;SDS011;36176;51.506;10.272;2022-08-20T06:55:19;6.90;;;5.30;;
50281;SDS011;36176;51.506;10.272;2022-08-20T06:57:54;7.10;;;5.18;;
50281;SDS011;36176;51.506;10.272;2022-08-20T07:00:25;8.10;;;5.75;;
50281;SDS011;36176;51.506;10.272;2022-08-20T07:02:54;6.72;;;5.18;;
50281;SDS011;36176;51.506;10.272;2022-08-20T07:05:21;10.98;;;6.82;;
50281;SDS011;36176;51.506;10.272;2022-08-20T07:07:55;9.32;;;7.20;;
50281;SDS011;36176;51.506;10.272;2022-08-20T07:10:23;9.73;;;7.57;;
50281;SDS011;36176;51.506;10.272;2022-08-20T07:12:51;10.23;;;9.15;;
50281;SDS011;36176;51.506;10.272;2022-08-20T07:15:20;10.57;;;8.93;;
50281;SDS011;36176;51.506;10.272;2022-08-20T07:17:49;15.32;;;8.90;;
50281;SDS011;36176;51.506;10.272;2022-08-20T07:20:32;11.18;;;9.40;;
50281;SDS011;36176;51.506;10.272;2022-08-20T07:23:01;12.80;;;9.85;;
50281;SDS011;36176;51.506;10.272;2022-08-20T07:25:29;11.57;;;9.50;;
50281;SDS011;36176;51.506;10.272;2022-08-20T07:28:00;11.88;;;9.98;;
50281;SDS011;36176;51.506;10.272;2022-08-20T07:30:30;10.60;;;9.65;;
50281;SDS011;36176;51.506;10.272;2022-08-20T07:33:27;11.05;;;8.55;;
50281;SDS011;36176;51.506;10.272;2022-08-20T07:35:59;11.00;;;8.27;;
50281;SDS011;36176;51.506;10.272;2022-08-20T07:38:32;14.60;;;8.85;;
50281;SDS011;36176;51.506;10.272;2022-08-20T07:41:01;11.23;;;9.95;;
50281;SDS011;36176;51.506;10.272;2022-08-20T07:43:39;10.55;;;9.55;;
50281;SDS011;36176;51.506;10.272;2022-08-20T07:46:08;11.32;;;10.25;;
50281;SDS011;36176;51.506;10.272;2022-08-20T07:48:36;10.95;;;9.85;;
50281;SDS011;36176;51.506;10.272;2022-08-20T07:51:10;13.00;;;9.93;;
50281;SDS011;36176;51.506;10.272;2022-08-20T07:53:38;10.57;;;9.15;;
50281;SDS011;36176;51.506;10.272;2022-08-20T07:56:07;12.07;;;11.00;;
50281;SDS011;36176;51.506;10.272;2022-08-20T07:58:44;13.10;;;11.80;;
50281;SDS011;36176;51.506;10.272;2022-08-20T08:01:16;10.57;;;9.45;;
50281;SDS011;36176;51.506;10.272;2022-08-20T08:03:45;11.85;;;10.75;;
50281;SDS011;36176;51.506;10.272;2022-08-20T08:06:20;13.00;;;11.00;;
50281;SDS011;36176;51.506;10.272;2022-08-20T08:09:06;13.93;;;12.65;;
50281;SDS011;36176;51.506;10.272;2022-08-20T08:11:36;13.02;;;11.75;;
50281;SDS011;36176;51.506;10.272;2022-08-20T08:14:13;13.98;;;12.32;;
50281;SDS011;36176;51.506;10.272;2022-08-20T08:16:42;12.13;;;10.93;;
50281;SDS011;36176;51.506;10.272;2022-08-20T08:19:11;13.60;;;12.30;;
50281;SDS011;36176;51.506;10.272;2022-08-20T08:21:41;15.50;;;14.13;;
50281;SDS011;36176;51.506;10.272;2022-08-20T08:24:09;12.40;;;11.27;;
50281;SDS011;36176;51.506;10.272;2022-08-20T08:26:42;16.23;;;14.57;;
50281;SDS011;36176;51.506;10.272;2022-08-20T08:29:10;14.07;;;12.75;;
50281;SDS011;36176;51.506;10.272;2022-08-20T08:31:39;13.38;;;12.10;;
50281;SDS011;36176;51.506;10.272;2022-08-20T08:34:07;13.93;;;12.63;;
50281;SDS011;36176;51.506;10.272;2022-08-20T08:36:34;14.23;;;12.80;;
50281;SDS011;36176;51.506;10.272;2022-08-20T08:39:04;13.90;;;12.70;;
50281;SDS011;36176;51.506;10.272;2022-08-20T08:41:42;16.25;;;14.68;;
50281;SDS011;36176;51.506;10.272;2022-08-20T08:44:27;14.40;;;13.00;;
50281;SDS011;36176;51.506;10.272;2022-08-20T08:47:01;14.00;;;12.80;;
50281;SDS011;36176;51.506;10.272;2022-08-20T08:49:44;14.63;;;13.30;;
50281;SDS011;36176;51.506;10.272;2022-08-20T08:52:20;14.82;;;13.52;;
50281;SDS011;36176;51.506;10.272;2022-08-20T08:54:54;15.75;;;14.23;;
50281;SDS011;36176;51.506;10.272;2022-08-20T08:57:27;15.77;;;14.13;;
50281;SDS011;36176;51.506;10.272;2022-08-20T08:59:59;17.40;;;15.80;;
50281;SDS011;36176;51.506;10.272;2022-08-20T09:02:31;17.20;;;15.55;;
50281;SDS011;36176;51.506;10.272;2022-08-20T09:05:00;15.43;;;13.85;;
50281;SDS011;36176;51.506;10.272;2022-08-20T09:07:30;17.13;;;15.52;;
50281;SDS011;36176;51.506;10.272;2022-08-20T09:09:59;16.27;;;14.75;;
50281;SDS011;36176;51.506;10.272;2022-08-20T09:12:28;18.50;;;16.90;;
50281;SDS011;36176;51.506;10.272;2022-08-20T09:15:03;16.35;;;14.80;;
50281;SDS011;36176;51.506;10.272;2022-08-20T09:17:40;16.38;;;14.88;;
50281;SDS011;36176;51.506;10.272;2022-08-20T09:20:24;15.15;;;13.65;;
50281;SDS011;36176;51.506;10.272;2022-08-20T09:22:59;16.20;;;14.70;;
50281;SDS011;36176;51.506;10.272;2022-08-20T09:25:26;16.30;;;14.77;;
50281;SDS011;36176;51.506;10.272;2022-08-20T09:27:53;14.73;;;13.23;;
50281;SDS011;36176;51.506;10.272;2022-08-20T09:30:21;13.95;;;12.63;;
50281;SDS011;36176;51.506;10.272;2022-08-20T09:32:52;16.67;;;15.27;;
50281;SDS011;36176;51.506;10.272;2022-08-20T09:35:20;15.18;;;13.85;;
50281;SDS011;36176;51.506;10.272;2022-08-20T09:37:47;14.25;;;12.98;;
50281;SDS011;36176;51.506;10.272;2022-08-20T09:40:16;12.25;;;11.07;;
50281;SDS011;36176;51.506;10.272;2022-08-20T09:42:47;11.88;;;10.88;;
50281;SDS011;36176;51.506;10.272;2022-08-20T09:45:15;12.05;;;10.93;;
50281;SDS011;36176;51.506;10.272;2022-08-20T09:47:43;12.55;;;11.50;;
50281;SDS011;36176;51.506;10.272;2022-08-20T09:50:46;12.60;;;11.40;;
50281;SDS011;36176;51.506;10.272;2022-08-20T10:15:08;8.98;;;8.18;;
50281;SDS011;36176;51.506;10.272;2022-08-20T10:17:37;8.27;;;7.57;;
50281;SDS011;36176;51.506;10.272;2022-08-20T10:20:14;8.57;;;7.63;;
50281;SDS011;36176;51.506;10.272;2022-08-20T10:22:44;8.80;;;8.00;;
50281;SDS011;36176;51.506;10.272;2022-08-20T10:25:11;9.13;;;8.23;;
50281;SDS011;36176;51.506;10.272;2022-08-20T10:27:39;9.18;;;8.38;;
50281;SDS011;36176;51.506;10.272;2022-08-20T10:30:06;8.90;;;8.20;;
50281;SDS011;36176;51.506;10.272;2022-08-20T10:32:34;9.05;;;8.15;;
50281;SDS011;36176;51.506;10.272;2022-08-20T10:35:02;11.13;;;8.57;;
50281;SDS011;36176;51.506;10.272;2022-08-20T10:37:29;10.77;;;9.70;;
50281;SDS011;36176;51.506;10.272;2022-08-20T10:39:57;9.55;;;8.75;;
50281;SDS011;36176;51.506;10.272;2022-08-20T10:42:24;12.73;;;10.80;;
50281;SDS011;36176;51.506;10.272;2022-08-20T10:44:51;10.18;;;9.18;;
50281;SDS011;36176;51.506;10.272;2022-08-20T10:49:55;8.35;;;7.60;;
50281;SDS011;36176;51.506;10.272;2022-08-20T10:52:24;6.38;;;5.85;;
50281;SDS011;36176;51.506;10.272;2022-08-20T10:54:52;6.40;;;5.90;;
50281;SDS011;36176;51.506;10.272;2022-08-20T10:57:24;7.00;;;6.38;;
50281;SDS011;36176;51.506;10.272;2022-08-20T10:59:55;5.88;;;5.38;;
50281;SDS011;36176;51.506;10.272;2022-08-20T11:02:26;5.70;;;5.20;;
50281;SDS011;36176;51.506;10.272;2022-08-20T11:04:53;6.13;;;5.63;;
50281;SDS011;36176;51.506;10.272;2022-08-20T11:07:29;7.32;;;6.80;;
50281;SDS011;36176;51.506;10.272;2022-08-20T11:10:19;5.85;;;5.45;;
50281;SDS011;36176;51.506;10.272;2022-08-20T11:12:47;12.93;;;11.77;;
50281;SDS011;36176;51.506;10.272;2022-08-20T11:15:15;8.70;;;7.93;;
50281;SDS011;36176;51.506;10.272;2022-08-20T11:18:17;11.10;;;10.10;;
50281;SDS011;36176;51.506;10.272;2022-08-20T11:20:45;12.05;;;10.95;;
50281;SDS011;36176;51.506;10.272;2022-08-20T11:23:12;10.73;;;9.70;;
50281;SDS011;36176;51.506;10.272;2022-08-20T11:25:39;15.88;;;14.27;;
50281;SDS011;36176;51.506;10.272;2022-08-20T11:28:06;15.60;;;14.25;;
50281;SDS011;36176;51.506;10.272;2022-08-20T11:30:35;15.20;;;13.73;;
50281;SDS011;36176;51.506;10.272;2022-08-20T11:33:03;14.80;;;13.63;;
50281;SDS011;36176;51.506;10.272;2022-08-20T11:35:32;15.65;;;14.38;;
50281;SDS011;36176;51.506;10.272;2022-08-20T11:38:21;15.68;;;14.27;;
50281;SDS011;36176;51.506;10.272;2022-08-20T11:40:48;15.93;;;14.60;;
50281;SDS011;36176;51.506;10.272;2022-08-20T11:43:15;16.88;;;15.38;;
50281;SDS011;36176;51.506;10.272;2022-08-20T11:45:44;14.88;;;13.65;;
50281;SDS011;36176;51.506;10.272;2022-08-20T11:48:13;13.57;;;12.38;;
50281;SDS011;36176;51.506;10.272;2022-08-20T11:50:40;13.57;;;12.48;;
50281;SDS011;36176;51.506;10.272;2022-08-20T11:53:08;13.43;;;12.20;;
50281;SDS011;36176;51.506;10.272;2022-08-20T11:55:35;13.90;;;12.60;;
50281;SDS011;36176;51.506;10.272;2022-08-20T11:58:04;12.07;;;11.07;;
50281;SDS011;36176;51.506;10.272;2022-08-20T12:00:32;12.55;;;11.45;;
50281;SDS011;36176;51.506;10.272;2022-08-20T12:03:03;10.65;;;9.73;;
50281;SDS011;36176;51.506;10.272;2022-08-20T12:05:36;13.27;;;12.27;;
50281;SDS011;36176;51.506;10.272;2022-08-20T12:08:04;9.45;;;8.57;;
50281;SDS011;36176;51.506;10.272;2022-08-20T12:10:32;8.05;;;7.30;;
50281;SDS011;36176;51.506;10.272;2022-08-20T12:12:59;8.43;;;7.60;;
50281;SDS011;36176;51.506;10.272;2022-08-20T12:15:31;17.73;;;16.15;;
50281;SDS011;36176;51.506;10.272;2022-08-20T12:18:05;15.23;;;13.93;;
50281;SDS011;36176;51.506;10.272;2022-08-20T12:20:34;13.35;;;12.15;;
50281;SDS011;36176;51.506;10.272;2022-08-20T12:23:02;10.02;;;9.30;;
50281;SDS011;36176;51.506;10.272;2022-08-20T12:25:30;10.80;;;9.90;;
50281;SDS011;36176;51.506;10.272;2022-08-20T12:27:57;7.68;;;6.97;;
50281;SDS011;36176;51.506;10.272;2022-08-20T12:30:25;12.68;;;11.65;;
50281;SDS011;36176;51.506;10.272;2022-08-20T12:32:52;8.50;;;7.70;;
50281;SDS011;36176;51.506;10.272;2022-08-20T12:35:25;10.18;;;9.18;;
50281;SDS011;36176;51.506;10.272;2022-08-20T12:38:07;8.45;;;7.70;;
50281;SDS011;36176;51.506;10.272;2022-08-20T12:40:34;8.23;;;7.50;;
50281;SDS011;36176;51.506;10.272;2022-08-20T12:43:02;10.98;;;9.98;;
50281;SDS011;36176;51.506;10.272;2022-08-20T12:45:29;10.82;;;9.82;;
50281;SDS011;36176;51.506;10.272;2022-08-20T12:48:03;14.95;;;13.70;;
50281;SDS011;36176;51.506;10.272;2022-08-20T12:50:37;10.93;;;10.02;;
50281;SDS011;36176;51.506;10.272;2022-08-20T12:53:05;13.98;;;12.77;;
50281;SDS011;36176;51.506;10.272;2022-08-20T12:55:33;16.95;;;15.57;;
50281;SDS011;36176;51.506;10.272;2022-08-20T12:58:01;13.15;;;12.15;;
50281;SDS011;36176;51.506;10.272;2022-08-20T13:00:31;13.20;;;12.23;;
50281;SDS011;36176;51.506;10.272;2022-08-20T13:03:01;13.93;;;12.80;;
50281;SDS011;36176;51.506;10.272;2022-08-20T13:05:30;11.38;;;10.48;;
50281;SDS011;36176;51.506;10.272;2022-08-20T13:08:01;10.38;;;9.57;;
50281;SDS011;36176;51.506;10.272;2022-08-20T13:10:34;14.27;;;13.07;;
50281;SDS011;36176;51.506;10.272;2022-08-20T13:13:03;9.75;;;8.98;;
50281;SDS011;36176;51.506;10.272;2022-08-20T13:15:31;9.80;;;9.02;;
50281;SDS011;36176;51.506;10.272;2022-08-20T13:17:59;8.20;;;7.65;;
50281;SDS011;36176;51.506;10.272;2022-08-20T13:20:28;8.52;;;7.68;;
50281;SDS011;36176;51.506;10.272;2022-08-20T13:23:00;9.05;;;8.50;;
50281;SDS011;36176;51.506;10.272;2022-08-20T13:25:29;5.55;;;5.15;;
50281;SDS011;36176;51.506;10.272;2022-08-20T13:27:57;4.43;;;4.03;;
50281;SDS011;36176;51.506;10.272;2022-08-20T13:30:26;2.10;;;2.00;;
50281;SDS011;36176;51.506;10.272;2022-08-20T13:32:53;1.80;;;1.70;;
50281;SDS011;36176;51.506;10.272;2022-08-20T13:35:20;2.53;;;2.33;;
50281;SDS011;36176;51.506;10.272;2022-08-20T13:37:50;1.92;;;1.33;;
50281;SDS011;36176;51.506;10.272;2022-08-20T13:40:17;2.33;;;2.22;;
50281;SDS011;36176;51.506;10.272;2022-08-20T13:42:45;2.00;;;1.90;;
50281;SDS011;36176;51.506;10.272;2022-08-20T13:45:12;3.05;;;2.15;;
50281;SDS011;36176;51.506;10.272;2022-08-20T13:47:41;1.83;;;1.73;;
50281;SDS011;36176;51.506;10.272;2022-08-20T13:50:17;2.17;;;2.08;;
50281;SDS011;36176;51.506;10.272;2022-08-20T13:52:46;2.20;;;2.10;;
50281;SDS011;36176;51.506;10.272;2022-08-20T13:55:30;3.10;;;2.90;;
50281;SDS011;36176;51.506;10.272;2022-08-20T13:58:03;2.25;;;2.15;;
50281;SDS011;36176;51.506;10.272;2022-08-20T14:00:32;2.75;;;2.20;;
50281;SDS011;36176;51.506;10.272;2022-08-20T14:03:02;2.55;;;2.35;;
50281;SDS011;36176;51.506;10.272;2022-08-20T14:05:31;1.92;;;1.83;;
50281;SDS011;36176;51.506;10.272;2022-08-20T14:08:04;2.38;;;2.17;;
50281;SDS011;36176;51.506;10.272;2022-08-20T14:10:34;2.30;;;2.20;;
50281;SDS011;36176;51.506;10.272;2022-08-20T14:13:03;2.30;;;2.20;;
50281;SDS011;36176;51.506;10.272;2022-08-20T14:15:33;2.70;;;2.50;;
50281;SDS011;36176;51.506;10.272;2022-08-20T14:18:01;2.30;;;2.10;;
50281;SDS011;36176;51.506;10.272;2022-08-20T14:20:31;3.20;;;2.70;;
50281;SDS011;36176;51.506;10.272;2022-08-20T14:22:59;3.45;;;2.60;;
50281;SDS011;36176;51.506;10.272;2022-08-20T14:25:28;2.65;;;2.45;;
50281;SDS011;36176;51.506;10.272;2022-08-20T14:27:57;4.80;;;4.43;;
50281;SDS011;36176;51.506;10.272;2022-08-20T14:30:26;3.03;;;2.83;;
50281;SDS011;36176;51.506;10.272;2022-08-20T14:32:56;2.85;;;2.65;;
50281;SDS011;36176;51.506;10.272;2022-08-20T14:35:23;3.90;;;3.60;;
50281;SDS011;36176;51.506;10.272;2022-08-20T14:37:52;4.78;;;3.78;;
50281;SDS011;36176;51.506;10.272;2022-08-20T14:40:20;11.18;;;10.43;;
50281;SDS011;36176;51.506;10.272;2022-08-20T14:42:53;6.65;;;6.22;;
50281;SDS011;36176;51.506;10.272;2022-08-20T14:45:21;4.65;;;4.10;;
50281;SDS011;36176;51.506;10.272;2022-08-20T14:47:50;8.13;;;7.53;;
50281;SDS011;36176;51.506;10.272;2022-08-20T14:50:38;6.82;;;6.38;;
50281;SDS011;36176;51.506;10.272;2022-08-20T14:53:06;8.43;;;7.88;;
50281;SDS011;36176;51.506;10.272;2022-08-20T14:55:36;5.53;;;5.13;;
50281;SDS011;36176;51.506;10.272;2022-08-20T14:58:07;6.47;;;6.07;;
50281;SDS011;36176;51.506;10.272;2022-08-20T15:00:36;7.15;;;6.63;;
50281;SDS011;36176;51.506;10.272;2022-08-20T15:03:04;9.20;;;8.55;;
50281;SDS011;36176;51.506;10.272;2022-08-20T15:05:32;12.48;;;11.60;;
50281;SDS011;36176;51.506;10.272;2022-08-20T15:08:05;32.00;;;29.38;;
50281;SDS011;36176;51.506;10.272;2022-08-20T15:10:37;16.48;;;15.35;;
50281;SDS011;36176;51.506;10.272;2022-08-20T15:13:05;12.90;;;12.02;;
50281;SDS011;36176;51.506;10.272;2022-08-20T15:15:36;13.85;;;13.00;;
50281;SDS011;36176;51.506;10.272;2022-08-20T15:18:03;14.68;;;13.73;;
50281;SDS011;36176;51.506;10.272;2022-08-20T15:20:32;7.10;;;6.68;;
50281;SDS011;36176;51.506;10.272;2022-08-20T15:23:00;3.30;;;3.10;;
50281;SDS011;36176;51.506;10.272;2022-08-20T15:25:29;5.30;;;4.85;;
50281;SDS011;36176;51.506;10.272;2022-08-20T15:28:03;7.30;;;6.90;;
50281;SDS011;36176;51.506;10.272;2022-08-20T15:30:34;3.88;;;3.67;;
50281;SDS011;36176;51.506;10.272;2022-08-20T15:33:03;5.18;;;4.88;;
50281;SDS011;36176;51.506;10.272;2022-08-20T15:35:43;4.82;;;4.55;;
50281;SDS011;36176;51.506;10.272;2022-08-20T15:38:13;4.88;;;4.57;;
50281;SDS011;36176;51.506;10.272;2022-08-20T15:40:40;4.90;;;4.60;;
50281;SDS011;36176;51.506;10.272;2022-08-20T15:43:08;5.75;;;5.35;;
50281;SDS011;36176;51.506;10.272;2022-08-20T15:45:43;7.75;;;7.25;;
50281;SDS011;36176;51.506;10.272;2022-08-20T15:48:16;10.10;;;9.40;;
50281;SDS011;36176;51.506;10.272;2022-08-20T15:51:01;7.47;;;6.88;;
50281;SDS011;36176;51.506;10.272;2022-08-20T15:53:46;7.85;;;7.35;;
50281;SDS011;36176;51.506;10.272;2022-08-20T16:07:54;7.50;;;6.90;;
50281;SDS011;36176;51.506;10.272;2022-08-20T16:10:33;7.82;;;7.22;;
50281;SDS011;36176;51.506;10.272;2022-08-20T16:16:00;8.20;;;7.60;;
50281;SDS011;36176;51.506;10.272;2022-08-20T16:18:31;8.25;;;7.75;;
50281;SDS011;36176;51.506;10.272;2022-08-20T16:21:02;5.85;;;5.38;;
50281;SDS011;36176;51.506;10.272;2022-08-20T16:23:36;8.82;;;8.32;;
50281;SDS011;36176;51.506;10.272;2022-08-20T16:31:19;7.75;;;7.25;;
50281;SDS011;36176;51.506;10.272;2022-08-20T16:40:11;10.40;;;9.73;;
50281;SDS011;36176;51.506;10.272;2022-08-20T16:42:47;7.97;;;7.47;;
50281;SDS011;36176;51.506;10.272;2022-08-20T16:45:23;17.25;;;16.17;;
50281;SDS011;36176;51.506;10.272;2022-08-20T16:47:53;8.30;;;7.78;;
50281;SDS011;36176;51.506;10.272;2022-08-20T16:50:28;11.25;;;10.55;;
50281;SDS011;36176;51.506;10.272;2022-08-20T16:53:00;11.45;;;10.73;;
50281;SDS011;36176;51.506;10.272;2022-08-20T16:55:28;7.40;;;6.90;;
50281;SDS011;36176;51.506;10.272;2022-08-20T16:57:55;17.40;;;16.33;;
50281;SDS011;36176;51.506;10.272;2022-08-20T17:00:27;8.32;;;7.68;;
50281;SDS011;36176;51.506;10.272;2022-08-20T17:03:02;6.68;;;6.07;;
50281;SDS011;36176;51.506;10.272;2022-08-20T17:08:26;11.55;;;10.75;;
50281;SDS011;36176;51.506;10.272;2022-08-20T17:11:11;7.88;;;7.38;;
50281;SDS011;36176;51.506;10.272;2022-08-20T17:13:42;15.95;;;14.90;;
50281;SDS011;36176;51.506;10.272;2022-08-20T17:18:49;7.53;;;6.97;;
50281;SDS011;36176;51.506;10.272;2022-08-20T17:21:19;6.55;;;6.05;;
50281;SDS011;36176;51.506;10.272;2022-08-20T17:23:53;6.05;;;5.65;;
50281;SDS011;36176;51.506;10.272;2022-08-20T17:26:34;5.38;;;5.03;;
50281;SDS011;36176;51.506;10.272;2022-08-20T17:29:14;4.55;;;4.25;;
50281;SDS011;36176;51.506;10.272;2022-08-20T17:31:53;6.15;;;5.85;;
50281;SDS011;36176;51.506;10.272;2022-08-20T17:34:27;7.70;;;7.20;;
50281;SDS011;36176;51.506;10.272;2022-08-20T17:37:08;5.25;;;4.85;;
50281;SDS011;36176;51.506;10.272;2022-08-20T17:39:50;9.82;;;9.27;;
50281;SDS011;36176;51.506;10.272;2022-08-20T17:42:30;6.85;;;6.35;;
50281;SDS011;36176;51.506;10.272;2022-08-20T17:45:04;6.47;;;6.03;;
50281;SDS011;36176;51.506;10.272;2022-08-20T17:47:51;9.25;;;8.75;;
50281;SDS011;36176;51.506;10.272;2022-08-20T17:50:23;6.13;;;5.72;;
50281;SDS011;36176;51.506;10.272;2022-08-20T17:55:51;6.28;;;5.88;;
50281;SDS011;36176;51.506;10.272;2022-08-20T18:01:21;5.38;;;4.97;;
50281;SDS011;36176;51.506;10.272;2022-08-20T18:03:50;4.22;;;3.83;;
50281;SDS011;36176;51.506;10.272;2022-08-20T18:06:23;4.53;;;4.13;;
50281;SDS011;36176;51.506;10.272;2022-08-20T18:09:16;4.55;;;4.20;;
50281;SDS011;36176;51.506;10.272;2022-08-20T18:12:21;5.47;;;5.07;;
50281;SDS011;36176;51.506;10.272;2022-08-20T18:15:08;4.25;;;3.95;;
50281;SDS011;36176;51.506;10.272;2022-08-20T18:23:17;4.18;;;3.88;;
50281;SDS011;36176;51.506;10.272;2022-08-20T18:25:52;4.13;;;3.83;;
50281;SDS011;36176;51.506;10.272;2022-08-20T18:28:29;7.28;;;6.80;;
50281;SDS011;36176;51.506;10.272;2022-08-20T18:31:04;8.23;;;7.72;;
50281;SDS011;36176;51.506;10.272;2022-08-20T18:33:35;5.38;;;4.82;;
50281;SDS011;36176;51.506;10.272;2022-08-20T18:36:13;5.88;;;5.47;;
50281;SDS011;36176;51.506;10.272;2022-08-20T18:38:58;6.00;;;5.50;;
50281;SDS011;36176;51.506;10.272;2022-08-20T18:41:35;6.22;;;5.82;;
50281;SDS011;36176;51.506;10.272;2022-08-20T18:44:07;6.80;;;6.30;;
50281;SDS011;36176;51.506;10.272;2022-08-20T18:46:58;5.45;;;5.05;;
50281;SDS011;36176;51.506;10.272;2022-08-20T18:52:12;6.40;;;6.00;;
50281;SDS011;36176;51.506;10.272;2022-08-20T18:54:52;6.80;;;6.20;;
50281;SDS011;36176;51.506;10.272;2022-08-20T18:57:23;6.32;;;5.72;;
50281;SDS011;36176;51.506;10.272;2022-08-20T19:00:07;5.38;;;5.00;;
50281;SDS011;36176;51.506;10.272;2022-08-20T19:05:30;5.80;;;4.68;;